Brucetown, VA (22622)

9:22 AM EST on February 11, 2016 (GMT -0500)
Baker Estates | | Change Station
CLOSE
Current Station
Personal Weather Station
Location: Bunker Hill, WV
Elevation: 577 ft
Nearby Weather Stations

Elev 577 ft 39.29 °N, 78.05 °W | Updated 25 seconds ago

Overcast
Overcast
19.3 °F
Feels Like 13 °F
N
4.0
Wind Variable Wind from WNW
Gusts 11.0 mph

Today
High -- | Low -- °F
--% Chance of Precip.
Yesterday
High -- | Low -- °F
Precip. -- in
Pressure 30.10 in
Visibility 10.0 miles
Clouds Overcast 5000 ft
Windchill 13 °F
Dew Point 4 °F
Humidity 50%
Rainfall 0.00 in
Snow Depth Not available.
7:09 AM 5:44 PM
Waxing Crescent, 12% visible
METAR KOKV 111415Z AUTO 27014G22KT 10SM OVC050 M06/M17 A3010 RMK AO2
Pressure 30.10 in
Visibility 10.0 miles
Clouds Overcast 5000 ft
Windchill 13 °F
Dew Point 4 °F
Humidity 50%
Rainfall 0.00 in
Snow Depth Not available.
7:09 AM 5:44 PM
Waxing Crescent, 12% visible
METAR KOKV 111415Z AUTO 27014G22KT 10SM OVC050 M06/M17 A3010 RMK AO2

10-Day Weather Forecast

Almanac

Astronomy

Feb. 11, 2016 Rise Set
Actual Time
Civil Twilight
Nautical Twilight
Astronomical Twilight
Moon
Length of Visible Light
Length of Day
Tomorrow will be .
, % of the Moon is Illuminated

Today's Extremes

State Highs State Lows

Community

WunderPhotos

Upload Photos

1,892,048 photos uploaded!

WunderBlog® & News

Nearby

Air Quality

  Air Quality AQ Index Pollutant
Not available.

Snow Depth

Station Depth Elevation

Earthquake Activity

City Distance Mag. Time & Date
Minimum magnitude displayed is 2.5.

Coastal Water Temperatures

Place Temperature

Stations

Nearby Weather Stations

Station Location Temp. Windchill Dew Point Humidity Wind Precip. Elev Updated Type
                   

Watches & Warnings

There are currently no watches in effect.